Time;durP1;ratioP1;P1;durP2;ratioP2;P2;SDS_P1;SDS_P2;PMS_P1;PMS_P2;Temp;Humidity;BMP_temperature;BMP_pressure;BME280_temperature;BME280_humidity;BME280_pressure;Samples;Min_cycle;Max_cycle;Signal;HPM_P1;HPM_P2
2023/08/31 00:00:09;;;;;;;2.05;1.00;;;14.20;99.90;;;;;;4835537;29;20041;-70
2023/08/31 00:02:55;;;;;;;2.42;1.10;;;14.20;99.90;;;;;;4838748;29;20030;-70
2023/08/31 00:05:42;;;;;;;3.75;1.13;;;14.30;99.90;;;;;;4829082;29;20053;-70
2023/08/31 00:08:29;;;;;;;2.22;1.17;;;14.30;99.90;;;;;;4837176;29;20034;-70
2023/08/31 00:11:15;;;;;;;1.83;1.17;;;14.20;99.90;;;;;;4838687;29;20041;-70
2023/08/31 00:14:02;;;;;;;1.60;0.80;;;14.30;99.90;;;;;;4819817;29;20065;-70
2023/08/31 00:16:48;;;;;;;2.25;1.33;;;14.20;99.90;;;;;;4837933;29;20472;-70
2023/08/31 00:19:34;;;;;;;1.90;1.30;;;14.10;99.90;;;;;;4838054;29;20068;-70
2023/08/31 00:22:20;;;;;;;2.28;1.20;;;14.00;99.90;;;;;;4830969;29;20033;-70
2023/08/31 00:25:08;;;;;;;3.20;1.60;;;14.00;99.90;;;;;;4838409;29;20061;-70
2023/08/31 00:27:54;;;;;;;3.20;1.33;;;14.00;99.90;;;;;;4825410;29;20034;-70
2023/08/31 00:30:41;;;;;;;2.10;1.02;;;13.90;99.90;;;;;;4837672;29;20045;-70
2023/08/31 00:33:27;;;;;;;3.28;1.67;;;14.00;99.90;;;;;;4836123;29;20069;-70
2023/08/31 00:36:14;;;;;;;4.32;1.00;;;14.00;99.90;;;;;;4839004;29;20399;-69
2023/08/31 00:39:10;;;;;;;5.43;1.38;;;14.00;99.90;;;;;;4832957;29;20046;-69
2023/08/31 00:41:56;;;;;;;4.30;1.00;;;14.00;99.90;;;;;;4838411;29;20688;-68
2023/08/31 00:44:42;;;;;;;4.18;1.40;;;14.00;99.90;;;;;;4834196;29;20045;-69
2023/08/31 00:47:28;;;;;;;6.38;1.33;;;14.00;99.90;;;;;;4838205;29;20030;-69
2023/08/31 00:50:14;;;;;;;7.60;1.55;;;14.10;99.90;;;;;;4835569;29;20095;-69
2023/08/31 00:53:00;;;;;;;5.45;1.25;;;14.20;99.90;;;;;;4834006;29;20040;-69
2023/08/31 00:55:47;;;;;;;1.98;1.20;;;14.10;99.90;;;;;;4838898;29;20068;-69
2023/08/31 00:58:33;;;;;;;2.80;1.25;;;14.20;99.90;;;;;;4837924;29;20041;-69
2023/08/31 01:01:32;;;;;;;1.77;0.80;;;14.10;99.90;;;;;;4842478;29;20129;-69
2023/08/31 01:04:33;;;;;;;2.72;1.17;;;14.10;99.90;;;;;;4840048;29;20033;-69
2023/08/31 01:07:26;;;;;;;4.32;1.73;;;14.00;99.90;;;;;;4835780;29;20038;-69
2023/08/31 01:10:25;;;;;;;5.80;2.10;;;14.00;99.90;;;;;;4827531;29;20041;-69
2023/08/31 01:13:17;;;;;;;2.53;1.60;;;14.00;99.90;;;;;;4841282;29;20105;-69
2023/08/31 01:16:06;;;;;;;1.88;1.08;;;14.00;99.90;;;;;;4842091;29;20077;-69
2023/08/31 01:18:54;;;;;;;2.85;1.38;;;14.00;99.90;;;;;;4841798;29;20036;-69
2023/08/31 01:21:44;;;;;;;2.15;1.15;;;13.90;99.90;;;;;;4835151;29;20049;-69
2023/08/31 01:24:31;;;;;;;4.07;1.27;;;13.90;99.90;;;;;;4841258;29;20030;-69
2023/08/31 01:27:18;;;;;;;2.40;1.50;;;13.80;99.90;;;;;;4828540;29;20057;-69
2023/08/31 01:30:05;;;;;;;4.95;1.42;;;13.90;99.90;;;;;;4825142;29;20731;-69
2023/08/31 01:32:52;;;;;;;2.25;1.20;;;13.90;99.90;;;;;;4838106;29;20035;-69
2023/08/31 01:35:45;;;;;;;7.55;1.40;;;13.80;99.90;;;;;;4835871;29;20038;-68
2023/08/31 01:38:35;;;;;;;2.90;1.60;;;13.80;99.90;;;;;;4832891;29;20479;-69
2023/08/31 01:41:24;;;;;;;2.53;1.30;;;13.80;99.90;;;;;;4841074;29;20041;-69
2023/08/31 01:44:16;;;;;;;6.97;1.42;;;13.70;99.90;;;;;;4840779;29;20080;-69
2023/08/31 01:47:05;;;;;;;3.38;1.77;;;13.60;99.90;;;;;;4841662;29;20037;-69
2023/08/31 01:49:52;;;;;;;2.55;1.55;;;13.60;99.90;;;;;;4827618;29;20037;-69
2023/08/31 01:52:38;;;;;;;4.45;1.60;;;13.70;99.90;;;;;;4834010;29;20467;-69
2023/08/31 01:55:25;;;;;;;4.55;1.77;;;13.60;99.90;;;;;;4821073;29;20038;-68
2023/08/31 01:58:11;;;;;;;3.33;1.73;;;13.50;99.90;;;;;;4840858;29;20056;-68
2023/08/31 02:00:57;;;;;;;4.50;1.40;;;13.50;99.90;;;;;;4841093;29;20372;-68
2023/08/31 02:03:43;;;;;;;4.40;1.55;;;13.40;99.90;;;;;;4841289;29;20037;-69
2023/08/31 02:06:29;;;;;;;3.15;2.08;;;13.30;99.90;;;;;;4841582;29;20541;-69
2023/08/31 02:09:15;;;;;;;4.90;1.70;;;13.20;99.90;;;;;;4836887;29;20053;-69
2023/08/31 02:12:01;;;;;;;3.30;1.75;;;13.20;99.90;;;;;;4842537;29;20125;-69
2023/08/31 02:14:47;;;;;;;4.55;2.00;;;13.20;99.90;;;;;;4841683;29;20038;-69
2023/08/31 02:17:36;;;;;;;4.00;2.45;;;13.20;99.90;;;;;;4834471;29;20034;-69
2023/08/31 02:20:22;;;;;;;3.53;1.70;;;13.20;99.90;;;;;;4831638;29;20034;-69
2023/08/31 02:23:09;;;;;;;2.65;1.58;;;13.20;99.90;;;;;;4840608;29;20034;-68
2023/08/31 02:25:56;;;;;;;9.63;1.92;;;13.20;99.90;;;;;;4841279;29;20045;-68
2023/08/31 02:28:42;;;;;;;7.60;2.40;;;13.10;99.90;;;;;;4835487;29;20057;-68
2023/08/31 02:31:28;;;;;;;6.72;2.20;;;13.10;99.90;;;;;;4848181;23;20033;-67
2023/08/31 02:34:14;;;;;;;3.25;2.00;;;13.10;99.90;;;;;;4858074;29;20045;-67
2023/08/31 02:37:00;;;;;;;4.30;2.08;;;13.10;99.90;;;;;;4843662;29;20101;-65
2023/08/31 02:39:46;;;;;;;3.75;2.15;;;13.10;99.90;;;;;;4848680;29;20045;-66
2023/08/31 02:42:32;;;;;;;4.05;2.17;;;13.00;99.90;;;;;;4844785;29;20112;-66
2023/08/31 02:45:19;;;;;;;4.35;2.20;;;13.00;99.90;;;;;;4847047;29;20487;-66
2023/08/31 02:48:07;;;;;;;8.60;2.30;;;12.90;99.90;;;;;;4852953;29;20041;-66
2023/08/31 02:50:54;;;;;;;5.05;2.30;;;12.90;99.90;;;;;;4839801;29;20113;-66
2023/08/31 02:53:40;;;;;;;7.80;2.67;;;12.90;99.90;;;;;;4849813;29;20076;-66
2023/08/31 02:56:26;;;;;;;3.45;2.10;;;12.80;99.90;;;;;;4839718;29;20606;-66
2023/08/31 02:59:12;;;;;;;5.95;2.60;;;12.80;99.90;;;;;;4841657;29;20144;-66
2023/08/31 03:01:58;;;;;;;8.23;2.05;;;12.80;99.90;;;;;;4847006;29;20045;-66
2023/08/31 03:04:44;;;;;;;6.00;2.53;;;12.80;99.90;;;;;;4851845;29;20155;-66
2023/08/31 03:07:30;;;;;;;3.53;2.03;;;12.80;99.90;;;;;;4847041;29;20202;-66
2023/08/31 03:10:16;;;;;;;6.45;3.00;;;12.80;99.90;;;;;;4853290;29;20939;-66
2023/08/31 03:13:03;;;;;;;6.60;3.03;;;12.80;99.90;;;;;;4838497;29;20033;-66
2023/08/31 03:15:49;;;;;;;6.20;2.75;;;12.70;99.90;;;;;;4851046;29;20048;-66
2023/08/31 03:18:35;;;;;;;4.22;2.20;;;12.70;99.90;;;;;;4843659;29;20041;-66
2023/08/31 03:21:21;;;;;;;5.88;1.95;;;12.60;99.90;;;;;;4839906;29;20034;-66
2023/08/31 03:24:07;;;;;;;4.22;2.03;;;12.60;99.90;;;;;;4839270;29;20414;-66
2023/08/31 03:26:53;;;;;;;4.20;2.42;;;12.60;99.90;;;;;;4842292;29;20059;-66
2023/08/31 03:29:40;;;;;;;8.50;2.58;;;12.60;99.90;;;;;;4844079;29;20519;-66
2023/08/31 03:32:26;;;;;;;7.07;3.63;;;12.60;99.90;;;;;;4839428;29;20050;-66
2023/08/31 03:35:12;;;;;;;5.18;2.72;;;12.50;99.90;;;;;;4854964;29;20045;-66
2023/08/31 03:37:58;;;;;;;5.95;2.60;;;12.50;99.90;;;;;;4842579;29;20038;-66
2023/08/31 03:40:54;;;;;;;9.05;2.90;;;12.50;99.90;;;;;;4843942;29;20038;-66
2023/08/31 03:43:40;;;;;;;5.63;2.60;;;12.50;99.90;;;;;;4851254;29;20037;-66
2023/08/31 03:46:27;;;;;;;4.70;2.40;;;12.50;99.90;;;;;;4839717;29;20053;-66
2023/08/31 03:49:13;;;;;;;6.22;3.00;;;12.50;99.90;;;;;;4845033;29;20495;-66
2023/08/31 03:51:59;;;;;;;4.63;2.88;;;12.40;99.90;;;;;;4838181;29;20030;-66
2023/08/31 03:54:45;;;;;;;4.63;2.60;;;12.40;99.90;;;;;;4846703;29;20048;-66
2023/08/31 03:57:31;;;;;;;17.38;3.03;;;12.40;99.90;;;;;;4833176;29;20056;-66
2023/08/31 04:00:17;;;;;;;5.63;2.92;;;12.40;99.90;;;;;;4852566;29;20114;-66
2023/08/31 04:03:05;;;;;;;4.07;2.55;;;12.40;99.90;;;;;;4840806;29;20041;-66
2023/08/31 04:05:55;;;;;;;13.50;4.43;;;12.40;99.90;;;;;;4846582;29;20095;-66
2023/08/31 04:08:41;;;;;;;4.90;2.53;;;12.40;99.90;;;;;;4851562;29;20037;-66
2023/08/31 04:11:27;;;;;;;6.57;2.95;;;12.50;99.90;;;;;;4853246;29;20120;-66
2023/08/31 04:14:13;;;;;;;5.38;2.72;;;12.40;99.90;;;;;;4852700;29;20551;-67
2023/08/31 04:16:59;;;;;;;9.40;2.80;;;12.50;99.90;;;;;;4856276;29;20040;-66
2023/08/31 04:19:45;;;;;;;5.88;3.08;;;12.50;99.90;;;;;;4851497;29;20040;-66
2023/08/31 04:22:31;;;;;;;4.93;2.95;;;12.50;99.90;;;;;;4843506;29;20038;-66
2023/08/31 04:25:17;;;;;;;4.65;2.22;;;12.50;99.90;;;;;;4838800;29;20098;-67
2023/08/31 04:28:04;;;;;;;7.88;2.75;;;12.60;99.90;;;;;;4845266;29;20034;-67
2023/08/31 04:30:50;;;;;;;5.40;3.30;;;12.60;99.90;;;;;;4841203;29;20038;-67
2023/08/31 04:33:38;;;;;;;5.25;2.38;;;12.60;99.90;;;;;;4855849;29;20034;-67
2023/08/31 04:36:27;;;;;;;8.05;3.53;;;12.60;99.90;;;;;;4849816;29;20041;-67
2023/08/31 04:39:13;;;;;;;4.68;2.83;;;12.50;99.90;;;;;;4847039;29;20052;-67
2023/08/31 04:41:59;;;;;;;7.30;2.50;;;12.50;99.90;;;;;;4846706;29;20049;-66
2023/08/31 04:44:45;;;;;;;4.72;2.92;;;12.50;99.90;;;;;;4844913;29;20049;-66
2023/08/31 04:47:32;;;;;;;5.97;3.20;;;12.50;99.90;;;;;;4848549;29;20175;-66
2023/08/31 04:50:18;;;;;;;5.03;2.90;;;12.50;99.90;;;;;;4840468;29;20030;-66
2023/08/31 04:53:04;;;;;;;12.10;2.70;;;12.50;99.90;;;;;;4853642;29;20037;-67
2023/08/31 04:55:51;;;;;;;5.50;2.95;;;12.50;99.90;;;;;;4843983;29;20077;-66
2023/08/31 04:58:37;;;;;;;6.03;3.13;;;12.50;99.90;;;;;;4848278;29;20042;-66
2023/08/31 05:01:23;;;;;;;4.68;2.88;;;12.50;99.90;;;;;;4837655;29;20034;-67
2023/08/31 05:04:09;;;;;;;11.23;3.45;;;12.50;99.90;;;;;;4847855;29;20034;-66
2023/08/31 05:06:55;;;;;;;6.50;3.20;;;12.60;99.90;;;;;;4854757;29;20570;-66
2023/08/31 05:09:41;;;;;;;4.32;2.35;;;12.60;99.90;;;;;;4838885;29;20049;-66
2023/08/31 05:12:27;;;;;;;8.27;3.40;;;12.70;99.90;;;;;;4845633;29;20045;-66
2023/08/31 05:15:13;;;;;;;5.45;2.88;;;12.70;99.90;;;;;;4848941;29;20155;-66
2023/08/31 05:17:59;;;;;;;6.57;3.25;;;12.70;99.90;;;;;;4842083;29;20398;-66
2023/08/31 05:20:48;;;;;;;5.70;2.88;;;12.70;99.90;;;;;;4843843;29;20131;-66
2023/08/31 05:23:34;;;;;;;4.10;2.50;;;12.70;99.90;;;;;;4849966;29;20053;-66
2023/08/31 05:26:20;;;;;;;18.55;3.22;;;12.80;99.90;;;;;;4847709;29;20065;-66
2023/08/31 05:29:06;;;;;;;7.28;4.00;;;12.80;99.90;;;;;;4854125;29;20482;-66
2023/08/31 05:31:53;;;;;;;6.93;2.17;;;12.90;99.90;;;;;;4852638;29;20045;-66
2023/08/31 05:34:39;;;;;;;6.45;2.92;;;12.90;99.90;;;;;;4848711;29;20045;-68
2023/08/31 05:37:26;;;;;;;4.32;2.30;;;13.00;99.90;;;;;;4851992;29;20057;-68
2023/08/31 05:40:13;;;;;;;5.72;2.53;;;13.10;99.90;;;;;;4844450;29;20045;-68
2023/08/31 05:42:59;;;;;;;8.82;2.92;;;13.10;99.90;;;;;;4864662;29;20156;-65
2023/08/31 05:45:46;;;;;;;7.03;3.20;;;13.20;99.90;;;;;;4859583;29;20042;-66
2023/08/31 05:48:32;;;;;;;10.73;2.47;;;13.20;99.90;;;;;;4858443;29;20038;-67
2023/08/31 05:51:18;;;;;;;7.43;3.13;;;13.20;99.90;;;;;;4857315;29;20407;-66
2023/08/31 05:54:05;;;;;;;9.65;3.10;;;13.20;99.90;;;;;;4843463;29;20418;-67
2023/08/31 05:56:51;;;;;;;3.35;2.20;;;13.10;99.90;;;;;;4859223;29;20037;-67
2023/08/31 05:59:37;;;;;;;4.25;2.17;;;13.30;99.90;;;;;;4857405;29;20033;-67
2023/08/31 06:02:23;;;;;;;5.38;2.20;;;13.30;99.90;;;;;;4855003;29;20026;-67
2023/08/31 06:05:12;;;;;;;5.15;2.13;;;13.40;99.90;;;;;;4859111;29;20048;-67
2023/08/31 06:07:58;;;;;;;5.38;2.60;;;13.50;99.90;;;;;;4856340;29;20070;-67
2023/08/31 06:10:44;;;;;;;3.17;1.95;;;13.50;99.90;;;;;;4858769;29;20037;-67
2023/08/31 06:13:30;;;;;;;5.10;2.60;;;13.50;99.90;;;;;;4857233;29;20387;-68
2023/08/31 06:16:16;;;;;;;5.40;2.70;;;13.50;99.90;;;;;;4859793;29;20049;-67
2023/08/31 06:19:03;;;;;;;13.68;3.63;;;13.40;99.90;;;;;;4856699;29;20072;-67
2023/08/31 06:21:49;;;;;;;6.57;2.60;;;13.40;99.90;;;;;;4858772;29;20486;-67
2023/08/31 06:24:36;;;;;;;7.97;3.15;;;13.50;99.90;;;;;;4853091;29;20045;-67
2023/08/31 06:27:22;;;;;;;9.20;3.15;;;13.60;99.90;;;;;;4858465;29;20037;-67
2023/08/31 06:30:12;;;;;;;5.82;2.97;;;13.50;99.90;;;;;;4855847;29;20037;-68
2023/08/31 06:32:58;;;;;;;3.65;2.40;;;13.70;99.90;;;;;;4849354;29;20060;-67
2023/08/31 06:35:48;;;;;;;6.90;2.80;;;13.80;99.90;;;;;;4858650;29;20064;-68
2023/08/31 06:38:35;;;;;;;4.60;3.00;;;14.00;99.90;;;;;;4852128;29;20037;-68
2023/08/31 06:41:21;;;;;;;7.55;2.42;;;14.00;99.90;;;;;;4858039;29;20498;-67
2023/08/31 06:44:07;;;;;;;3.53;2.15;;;14.10;99.90;;;;;;4855566;29;20041;-68
2023/08/31 06:46:53;;;;;;;2.65;1.90;;;14.10;99.90;;;;;;4855778;29;20037;-67
2023/08/31 06:49:39;;;;;;;2.75;1.42;;;14.20;99.90;;;;;;4837983;29;20044;-68
2023/08/31 06:52:26;;;;;;;6.90;2.00;;;14.20;99.90;;;;;;4857821;29;20065;-67
2023/08/31 06:55:12;;;;;;;3.08;1.58;;;14.20;99.90;;;;;;4858010;29;20041;-68
2023/08/31 06:57:59;;;;;;;2.67;1.55;;;14.30;99.90;;;;;;4857884;29;20106;-68
2023/08/31 07:00:47;;;;;;;3.38;1.95;;;14.40;99.90;;;;;;4853361;29;20049;-68
2023/08/31 07:03:33;;;;;;;10.00;1.73;;;14.40;99.90;;;;;;4856862;29;20044;-52
2023/08/31 07:06:19;;;;;;;3.03;1.42;;;14.40;99.90;;;;;;4857502;29;20091;-50
2023/08/31 07:09:06;;;;;;;8.75;2.30;;;14.60;99.90;;;;;;4856144;29;20045;-54
2023/08/31 07:11:52;;;;;;;4.13;2.28;;;14.60;99.90;;;;;;4848117;29;20039;-54
2023/08/31 07:14:38;;;;;;;2.70;1.65;;;14.70;99.90;;;;;;4853053;29;20041;-55
2023/08/31 07:17:24;;;;;;;2.67;1.40;;;14.90;99.90;;;;;;4850489;29;20148;-53
2023/08/31 07:20:12;;;;;;;2.78;1.30;;;14.70;99.90;;;;;;4855497;29;20046;-53
2023/08/31 07:22:59;;;;;;;4.63;1.73;;;14.60;99.90;;;;;;4856764;29;20064;-53
2023/08/31 07:25:45;;;;;;;2.17;0.90;;;14.70;99.90;;;;;;4857552;29;20033;-51
2023/08/31 07:28:31;;;;;;;2.95;1.40;;;14.80;99.90;;;;;;4855762;29;20041;-55
2023/08/31 07:31:17;;;;;;;5.63;1.75;;;14.80;99.90;;;;;;4856145;29;20120;-55
2023/08/31 07:34:03;;;;;;;3.75;1.60;;;14.90;99.90;;;;;;4854875;29;20037;-51
2023/08/31 07:36:50;;;;;;;7.95;1.95;;;14.90;99.90;;;;;;4852085;29;20508;-52
2023/08/31 07:39:36;;;;;;;2.97;1.33;;;14.80;99.90;;;;;;4862000;29;20046;-55
2023/08/31 07:42:22;;;;;;;3.17;1.67;;;14.80;99.90;;;;;;4856850;29;20046;-55
2023/08/31 07:45:09;;;;;;;2.97;1.33;;;14.80;99.90;;;;;;4856288;29;20033;-55
2023/08/31 07:47:55;;;;;;;3.28;1.25;;;14.90;99.90;;;;;;4839485;29;20108;-67
2023/08/31 07:50:42;;;;;;;1.88;1.13;;;14.80;99.90;;;;;;4861862;29;20112;-67
2023/08/31 07:53:28;;;;;;;4.55;1.77;;;14.70;99.90;;;;;;4853626;29;20030;-67
2023/08/31 07:56:14;;;;;;;6.32;1.40;;;14.70;99.90;;;;;;4856512;29;20574;-66
2023/08/31 07:59:00;;;;;;;3.15;1.10;;;14.90;99.90;;;;;;4857348;29;20764;-66
2023/08/31 08:01:48;;;;;;;3.35;1.13;;;15.00;99.90;;;;;;4852311;29;20037;-66
2023/08/31 08:04:34;;;;;;;8.68;1.10;;;15.10;99.90;;;;;;4857170;29;20085;-66
2023/08/31 08:07:20;;;;;;;3.40;1.23;;;15.30;99.90;;;;;;4854965;29;20041;-66
2023/08/31 08:10:07;;;;;;;3.88;1.23;;;15.40;99.90;;;;;;4856288;29;20068;-66
2023/08/31 08:12:53;;;;;;;3.60;1.48;;;15.60;99.90;;;;;;4838562;29;20062;-66
2023/08/31 08:15:39;;;;;;;4.22;1.40;;;15.80;99.90;;;;;;4842483;29;20052;-66
2023/08/31 08:18:25;;;;;;;5.18;1.48;;;16.10;99.90;;;;;;4852654;29;20037;-66
2023/08/31 08:21:11;;;;;;;8.55;1.23;;;16.20;99.90;;;;;;4853986;29;20351;-66
2023/08/31 08:23:57;;;;;;;2.13;1.10;;;16.40;99.90;;;;;;4856976;29;20037;-66
2023/08/31 08:26:43;;;;;;;7.70;1.08;;;16.50;99.90;;;;;;4851603;29;20045;-66
2023/08/31 08:29:29;;;;;;;1.05;0.60;;;16.30;99.90;;;;;;4855669;29;20041;-66
2023/08/31 08:32:15;;;;;;;3.33;1.02;;;16.50;99.90;;;;;;4855960;29;20045;-66
2023/08/31 08:35:02;;;;;;;4.88;1.60;;;16.60;99.90;;;;;;4856789;29;20034;-67
2023/08/31 08:37:48;;;;;;;2.08;0.70;;;16.50;99.90;;;;;;4851046;29;20041;-67
2023/08/31 08:40:35;;;;;;;0.70;0.60;;;16.50;99.90;;;;;;4856053;29;20065;-67
2023/08/31 08:43:26;;;;;;;1.08;0.47;;;16.40;99.90;;;;;;4842599;29;20509;-67
2023/08/31 08:46:12;;;;;;;2.10;1.00;;;16.50;99.90;;;;;;4855882;29;20402;-67
2023/08/31 08:49:02;;;;;;;8.18;1.20;;;16.50;99.90;;;;;;4854265;29;20386;-67
2023/08/31 08:51:50;;;;;;;4.80;1.57;;;16.40;99.90;;;;;;4842637;29;20467;-68
2023/08/31 08:54:38;;;;;;;2.25;0.90;;;16.50;99.90;;;;;;4846375;29;20309;-67
2023/08/31 08:57:24;;;;;;;3.22;1.00;;;16.50;99.90;;;;;;4832576;29;20056;-70
2023/08/31 09:00:11;;;;;;;4.63;1.23;;;16.60;99.90;;;;;;4831328;29;20128;-68
2023/08/31 09:02:59;;;;;;;0.80;0.50;;;16.60;99.90;;;;;;4846430;29;20061;-67
2023/08/31 09:05:46;;;;;;;1.77;0.80;;;16.70;99.90;;;;;;4846524;29;20049;-68
2023/08/31 09:08:37;;;;;;;2.05;0.75;;;16.70;99.90;;;;;;4852906;29;20065;-69
2023/08/31 09:11:26;;;;;;;1.67;0.90;;;16.90;99.90;;;;;;4840319;29;20026;-67
2023/08/31 09:14:19;;;;;;;4.13;1.00;;;17.00;99.90;;;;;;4855380;29;20038;-67
2023/08/31 09:17:06;;;;;;;1.95;0.90;;;17.20;99.90;;;;;;4855893;29;20037;-68
2023/08/31 09:20:05;;;;;;;1.27;0.43;;;17.40;99.90;;;;;;4848316;29;20059;-67
2023/08/31 09:22:56;;;;;;;1.08;0.55;;;17.70;99.90;;;;;;4841593;29;20459;-68
2023/08/31 09:25:53;;;;;;;3.83;0.80;;;17.90;99.90;;;;;;4856443;29;20041;-67
2023/08/31 09:28:41;;;;;;;3.75;0.68;;;18.00;99.90;;;;;;4850840;29;20037;-67
2023/08/31 09:31:30;;;;;;;3.25;0.93;;;18.20;99.90;;;;;;4850842;29;20038;-67
2023/08/31 09:34:18;;;;;;;2.75;1.10;;;18.50;99.90;;;;;;4857232;29;20034;-67
2023/08/31 09:37:06;;;;;;;0.93;0.60;;;18.70;99.90;;;;;;4858240;29;20079;-66
2023/08/31 09:39:52;;;;;;;2.10;0.88;;;18.50;99.90;;;;;;4849066;29;20435;-66
2023/08/31 09:42:38;;;;;;;2.55;0.93;;;18.50;99.90;;;;;;4856697;29;20091;-66
2023/08/31 09:45:31;;;;;;;5.18;0.50;;;18.60;99.90;;;;;;4867288;29;20465;-66
2023/08/31 09:48:22;;;;;;;1.40;0.55;;;18.80;99.90;;;;;;4858511;29;20497;-66
2023/08/31 09:51:11;;;;;;;2.85;0.70;;;19.20;99.90;;;;;;4857327;29;20037;-66
2023/08/31 09:53:59;;;;;;;6.07;1.10;;;19.10;99.90;;;;;;4857151;29;20030;-66
2023/08/31 09:56:48;;;;;;;4.55;0.90;;;19.10;99.90;;;;;;4842757;29;20041;-66
2023/08/31 09:59:35;;;;;;;1.98;0.63;;;19.40;99.90;;;;;;4859319;29;20048;-66
2023/08/31 10:02:21;;;;;;;1.15;0.75;;;19.60;99.90;;;;;;4830689;29;20152;-66
2023/08/31 10:05:08;;;;;;;1.10;0.45;;;19.40;99.90;;;;;;4857177;29;20040;-66
2023/08/31 10:07:55;;;;;;;1.38;0.75;;;19.60;99.90;;;;;;4857546;29;20065;-66
2023/08/31 10:10:42;;;;;;;1.60;0.50;;;19.70;99.90;;;;;;4848189;29;20072;-66
2023/08/31 10:13:31;;;;;;;4.07;1.00;;;19.60;99.90;;;;;;4844507;29;20041;-66
2023/08/31 10:16:19;;;;;;;2.35;0.98;;;19.60;99.90;;;;;;4848750;29;20530;-66
2023/08/31 10:19:05;;;;;;;0.95;0.55;;;19.50;99.90;;;;;;4846793;29;20049;-66
2023/08/31 10:21:51;;;;;;;3.95;0.75;;;19.50;99.90;;;;;;4835425;29;20033;-66
2023/08/31 10:24:57;;;;;;;4.20;0.85;;;19.50;98.60;;;;;;4849020;29;20042;-67
2023/08/31 10:27:47;;;;;;;1.52;0.50;;;19.60;99.90;;;;;;4841859;29;20045;-69
2023/08/31 10:30:33;;;;;;;1.80;0.50;;;19.50;99.90;;;;;;4850111;29;20413;-67
2023/08/31 10:33:23;;;;;;;3.13;0.80;;;19.50;99.90;;;;;;4855735;29;20040;-67
2023/08/31 10:36:14;;;;;;;1.83;0.63;;;19.40;99.90;;;;;;4831792;29;20039;-67
2023/08/31 10:39:15;;;;;;;1.17;0.50;;;19.30;99.70;;;;;;4831477;29;20033;-67
2023/08/31 10:42:02;;;;;;;4.78;0.93;;;19.60;99.10;;;;;;4835586;29;20041;-66
2023/08/31 10:44:49;;;;;;;1.52;0.70;;;19.70;96.90;;;;;;4849759;29;20048;-66
2023/08/31 10:47:41;;;;;;;1.58;0.60;;;19.60;94.60;;;;;;4848206;29;20451;-67
2023/08/31 10:50:27;;;;;;;;;;;19.60;96.70;;;;;;4835790;29;20052;-67
2023/08/31 10:53:13;;;;;;;1.38;0.63;;;19.60;95.50;;;;;;4848127;29;20016;-67
2023/08/31 10:55:59;;;;;;;1.63;0.60;;;19.30;95.90;;;;;;4848963;29;20089;-67
2023/08/31 10:59:00;;;;;;;3.65;0.80;;;19.10;95.20;;;;;;4841824;29;20041;-67
2023/08/31 11:02:02;;;;;;;1.63;0.73;;;19.20;95.00;;;;;;4834886;29;20049;-67
2023/08/31 11:05:12;;;;;;;2.13;0.93;;;19.40;95.80;;;;;;4849669;29;20041;-67
2023/08/31 11:07:58;;;;;;;2.67;0.65;;;19.70;94.30;;;;;;4848285;29;20034;-67
2023/08/31 11:10:46;;;;;;;2.08;0.60;;;19.60;91.90;;;;;;4849371;29;20041;-65
2023/08/31 11:13:32;;;;;;;1.10;0.55;;;19.50;93.50;;;;;;4843001;29;20033;-67
2023/08/31 11:16:18;;;;;;;2.40;0.60;;;19.80;92.20;;;;;;4850048;29;20048;-67
2023/08/31 11:19:04;;;;;;;3.20;0.73;;;20.20;92.30;;;;;;4852316;29;20564;-67
2023/08/31 11:21:50;;;;;;;1.20;0.70;;;20.60;94.00;;;;;;4844895;29;20124;-67
2023/08/31 11:24:37;;;;;;;4.10;0.82;;;20.50;91.50;;;;;;4851691;29;20049;-68
2023/08/31 11:27:23;;;;;;;5.10;1.23;;;20.40;91.00;;;;;;4857954;29;20478;-66
2023/08/31 11:30:16;;;;;;;2.88;1.10;;;20.40;90.60;;;;;;4857307;29;20070;-66
2023/08/31 11:33:07;;;;;;;5.13;0.95;;;20.40;91.70;;;;;;4848166;29;20049;-66
2023/08/31 11:35:53;;;;;;;1.90;0.70;;;20.90;91.10;;;;;;4850572;29;20493;-66
2023/08/31 11:38:40;;;;;;;1.23;0.60;;;20.90;90.30;;;;;;4851175;29;20156;-66
2023/08/31 11:41:33;;;;;;;3.47;0.82;;;21.00;89.20;;;;;;4848110;29;20041;-66
2023/08/31 11:44:19;;;;;;;2.72;0.65;;;20.70;88.90;;;;;;4856168;29;20029;-66
2023/08/31 11:47:06;;;;;;;4.28;0.60;;;20.40;92.20;;;;;;4852342;29;20038;-67
2023/08/31 11:49:52;;;;;;;2.25;0.77;;;20.30;91.30;;;;;;4838351;29;20417;-65
2023/08/31 11:52:38;;;;;;;3.88;0.85;;;20.20;92.40;;;;;;4850341;29;20037;-65
2023/08/31 11:55:24;;;;;;;2.33;0.68;;;19.90;95.20;;;;;;4854971;29;20064;-66
2023/08/31 11:58:10;;;;;;;1.25;0.60;;;19.80;94.30;;;;;;4857222;29;20363;-66
2023/08/31 12:00:58;;;;;;;1.17;0.45;;;19.70;92.70;;;;;;4856430;29;20474;-66
2023/08/31 12:03:45;;;;;;;2.33;0.70;;;19.70;94.10;;;;;;4837736;29;20414;-67
2023/08/31 12:06:31;;;;;;;1.75;0.77;;;19.50;95.50;;;;;;4853600;29;20073;-66
2023/08/31 12:09:17;;;;;;;4.38;1.08;;;19.40;95.90;;;;;;4855976;29;20482;-66
2023/08/31 12:12:07;;;;;;;2.20;0.95;;;19.50;94.70;;;;;;4856674;29;20040;-68
2023/08/31 12:14:53;;;;;;;1.45;0.60;;;19.50;95.70;;;;;;4851779;29;20439;-66
2023/08/31 12:17:40;;;;;;;4.57;0.60;;;19.90;94.50;;;;;;4850964;29;20055;-66
2023/08/31 12:20:27;;;;;;;5.03;0.52;;;20.40;94.80;;;;;;4856160;29;20049;-67
2023/08/31 12:23:15;;;;;;;2.25;0.93;;;21.10;95.00;;;;;;4857060;29;20545;-67
2023/08/31 12:26:02;;;;;;;3.88;1.25;;;21.80;92.60;;;;;;4856180;29;20060;-67
2023/08/31 12:28:48;;;;;;;2.47;0.90;;;21.60;92.40;;;;;;4846771;29;20036;-67
2023/08/31 12:31:35;;;;;;;5.47;1.23;;;22.00;91.40;;;;;;4850445;29;20033;-66
2023/08/31 12:34:22;;;;;;;4.88;0.82;;;22.00;90.50;;;;;;4849705;29;20064;-67
2023/08/31 12:37:08;;;;;;;3.05;0.93;;;21.50;90.80;;;;;;4850833;29;20569;-67
2023/08/31 12:39:54;;;;;;;5.22;1.15;;;21.10;92.30;;;;;;4854930;29;20046;-67
2023/08/31 12:42:40;;;;;;;5.70;0.80;;;20.90;92.60;;;;;;4856903;29;20116;-67
2023/08/31 12:45:26;;;;;;;2.53;0.50;;;21.30;93.80;;;;;;4849302;29;20041;-66
2023/08/31 12:48:12;;;;;;;4.95;0.88;;;22.00;91.00;;;;;;4857462;29;20085;-66
2023/08/31 12:50:58;;;;;;;5.63;0.90;;;22.00;89.70;;;;;;4850428;29;20025;-67
2023/08/31 12:53:44;;;;;;;1.90;0.90;;;21.80;91.00;;;;;;4854081;29;20045;-67
2023/08/31 12:56:30;;;;;;;2.45;0.85;;;21.20;91.00;;;;;;4852678;29;20046;-67
2023/08/31 12:59:16;;;;;;;4.13;1.35;;;21.30;94.80;;;;;;4851899;29;20125;-66
2023/08/31 13:02:06;;;;;;;3.20;0.77;;;21.20;94.30;;;;;;4851816;29;20088;-66
2023/08/31 13:04:52;;;;;;;1.40;0.80;;;21.30;93.20;;;;;;4854848;29;20037;-66
2023/08/31 13:07:39;;;;;;;4.47;1.02;;;20.80;93.90;;;;;;4853031;29;20086;-66
2023/08/31 13:10:25;;;;;;;3.05;0.68;;;20.60;93.30;;;;;;4834945;29;20379;-66
2023/08/31 13:13:11;;;;;;;3.47;1.30;;;20.30;93.90;;;;;;4853570;29;20036;-66
2023/08/31 13:15:57;;;;;;;4.40;1.13;;;20.40;94.60;;;;;;4855193;29;20037;-66
2023/08/31 13:18:43;;;;;;;2.55;0.98;;;20.50;95.50;;;;;;4853807;29;20048;-66
2023/08/31 13:21:29;;;;;;;5.70;0.93;;;20.50;95.90;;;;;;4857987;29;20029;-66
2023/08/31 13:24:16;;;;;;;3.47;0.98;;;20.30;95.80;;;;;;4857744;29;20060;-66
2023/08/31 13:27:03;;;;;;;2.92;1.02;;;20.60;97.20;;;;;;4859856;29;20410;-66
2023/08/31 13:29:50;;;;;;;1.73;0.90;;;20.70;95.70;;;;;;4855182;29;20394;-66
2023/08/31 13:32:36;;;;;;;2.75;1.00;;;20.70;96.60;;;;;;4851945;29;20041;-66
2023/08/31 13:35:22;;;;;;;4.43;1.48;;;20.60;95.90;;;;;;4854203;29;20120;-66
2023/08/31 13:38:09;;;;;;;5.28;1.50;;;21.00;94.10;;;;;;4850696;29;20080;-66
2023/08/31 13:40:59;;;;;;;1.50;0.80;;;21.10;94.20;;;;;;4851227;29;20416;-66
2023/08/31 13:43:45;;;;;;;2.55;0.93;;;21.30;94.30;;;;;;4858945;29;20399;-66
2023/08/31 13:46:31;;;;;;;1.40;0.60;;;20.80;94.60;;;;;;4853046;29;20069;-66
2023/08/31 13:49:17;;;;;;;1.52;0.82;;;21.00;97.10;;;;;;4859640;29;20102;-66
2023/08/31 13:52:05;;;;;;;4.88;1.08;;;20.30;96.00;;;;;;4858634;29;20451;-66
2023/08/31 13:54:51;;;;;;;5.32;0.90;;;20.10;99.10;;;;;;4860088;29;20040;-66
2023/08/31 13:57:42;;;;;;;6.13;1.48;;;20.10;98.60;;;;;;4858382;29;20041;-66
2023/08/31 14:00:28;;;;;;;4.45;1.00;;;20.50;98.50;;;;;;4851423;29;20073;-66
2023/08/31 14:03:14;;;;;;;1.95;0.70;;;21.20;98.60;;;;;;4860003;29;20056;-66
2023/08/31 14:06:00;;;;;;;1.90;1.00;;;21.80;95.60;;;;;;4857002;29;20534;-66
2023/08/31 14:08:46;;;;;;;1.73;0.70;;;22.50;93.10;;;;;;4860168;29;20033;-66
2023/08/31 14:11:33;;;;;;;5.20;1.08;;;22.40;93.80;;;;;;4850758;29;20115;-66
2023/08/31 14:14:19;;;;;;;3.40;0.75;;;23.70;90.40;;;;;;4831934;29;20093;-66
2023/08/31 14:17:05;;;;;;;3.08;0.60;;;24.40;84.70;;;;;;4857857;29;20128;-66
2023/08/31 14:19:51;;;;;;;1.35;0.77;;;24.90;87.40;;;;;;4859048;29;20036;-65
2023/08/31 14:22:42;;;;;;;2.58;0.90;;;24.60;81.90;;;;;;4853468;29;20498;-67
2023/08/31 14:25:28;;;;;;;1.42;0.63;;;24.30;84.50;;;;;;4857254;29;20042;-67
2023/08/31 14:28:14;;;;;;;1.75;0.63;;;25.10;80.80;;;;;;4859225;29;20482;-67
2023/08/31 14:31:05;;;;;;;1.58;0.63;;;23.90;79.80;;;;;;4840580;29;20089;-67